sensor_id;sensor_type;location;lat;lon;timestamp;temperature;humidity
7218;DHT22;3650;53.580;10.094;2022-07-29T00:00:49;16.30;58.50
7218;DHT22;3650;53.580;10.094;2022-07-29T00:03:16;16.30;58.70
7218;DHT22;3650;53.580;10.094;2022-07-29T00:05:42;16.20;59.60
7218;DHT22;3650;53.580;10.094;2022-07-29T00:08:09;16.10;59.30
7218;DHT22;3650;53.580;10.094;2022-07-29T00:10:36;16.00;60.90
7218;DHT22;3650;53.580;10.094;2022-07-29T00:13:04;15.90;61.10
7218;DHT22;3650;53.580;10.094;2022-07-29T00:15:31;15.90;61.30
7218;DHT22;3650;53.580;10.094;2022-07-29T00:17:58;15.90;62.80
7218;DHT22;3650;53.580;10.094;2022-07-29T00:20:25;15.90;61.60
7218;DHT22;3650;53.580;10.094;2022-07-29T00:22:52;15.80;61.50
7218;DHT22;3650;53.580;10.094;2022-07-29T00:25:19;15.80;62.10
7218;DHT22;3650;53.580;10.094;2022-07-29T00:27:46;15.80;61.80
7218;DHT22;3650;53.580;10.094;2022-07-29T00:30:14;15.80;61.80
7218;DHT22;3650;53.580;10.094;2022-07-29T00:32:41;15.70;61.80
7218;DHT22;3650;53.580;10.094;2022-07-29T00:35:08;15.70;62.60
7218;DHT22;3650;53.580;10.094;2022-07-29T00:37:53;15.70;62.70
7218;DHT22;3650;53.580;10.094;2022-07-29T00:40:20;15.60;62.50
7218;DHT22;3650;53.580;10.094;2022-07-29T00:42:49;15.60;62.80
7218;DHT22;3650;53.580;10.094;2022-07-29T00:45:18;15.60;63.00
7218;DHT22;3650;53.580;10.094;2022-07-29T00:47:45;15.50;63.30
7218;DHT22;3650;53.580;10.094;2022-07-29T00:50:13;15.40;63.70
7218;DHT22;3650;53.580;10.094;2022-07-29T00:52:42;15.40;64.20
7218;DHT22;3650;53.580;10.094;2022-07-29T00:55:12;15.40;64.50
7218;DHT22;3650;53.580;10.094;2022-07-29T00:57:40;15.40;64.60
7218;DHT22;3650;53.580;10.094;2022-07-29T01:00:10;15.40;64.70
7218;DHT22;3650;53.580;10.094;2022-07-29T01:02:38;15.40;64.80
7218;DHT22;3650;53.580;10.094;2022-07-29T01:05:06;15.30;64.70
7218;DHT22;3650;53.580;10.094;2022-07-29T01:07:34;15.40;65.00
7218;DHT22;3650;53.580;10.094;2022-07-29T01:10:02;15.30;64.70
7218;DHT22;3650;53.580;10.094;2022-07-29T01:12:31;15.30;64.90
7218;DHT22;3650;53.580;10.094;2022-07-29T01:15:00;15.30;64.50
7218;DHT22;3650;53.580;10.094;2022-07-29T01:17:33;15.30;64.90
7218;DHT22;3650;53.580;10.094;2022-07-29T01:20:08;15.20;64.20
7218;DHT22;3650;53.580;10.094;2022-07-29T01:23:07;15.20;65.00
7218;DHT22;3650;53.580;10.094;2022-07-29T01:26:00;15.10;65.00
7218;DHT22;3650;53.580;10.094;2022-07-29T01:28:40;15.10;65.30
7218;DHT22;3650;53.580;10.094;2022-07-29T01:31:11;15.10;65.30
7218;DHT22;3650;53.580;10.094;2022-07-29T01:33:43;15.10;65.00
7218;DHT22;3650;53.580;10.094;2022-07-29T01:36:22;15.10;65.00
7218;DHT22;3650;53.580;10.094;2022-07-29T01:38:55;15.10;65.30
7218;DHT22;3650;53.580;10.094;2022-07-29T01:41:27;15.10;65.20
7218;DHT22;3650;53.580;10.094;2022-07-29T01:44:01;15.10;65.20
7218;DHT22;3650;53.580;10.094;2022-07-29T01:46:33;15.10;65.10
7218;DHT22;3650;53.580;10.094;2022-07-29T01:49:07;15.10;64.80
7218;DHT22;3650;53.580;10.094;2022-07-29T01:51:40;15.10;64.90
7218;DHT22;3650;53.580;10.094;2022-07-29T01:54:13;15.10;64.60
7218;DHT22;3650;53.580;10.094;2022-07-29T01:56:42;15.10;64.70
7218;DHT22;3650;53.580;10.094;2022-07-29T01:59:12;15.10;65.20
7218;DHT22;3650;53.580;10.094;2022-07-29T02:01:40;15.10;65.10
7218;DHT22;3650;53.580;10.094;2022-07-29T02:04:10;15.10;65.50
7218;DHT22;3650;53.580;10.094;2022-07-29T02:06:38;15.10;66.20
7218;DHT22;3650;53.580;10.094;2022-07-29T02:09:07;15.10;65.80
7218;DHT22;3650;53.580;10.094;2022-07-29T02:11:37;15.00;66.20
7218;DHT22;3650;53.580;10.094;2022-07-29T02:14:05;15.10;66.30
7218;DHT22;3650;53.580;10.094;2022-07-29T02:16:36;15.10;66.30
7218;DHT22;3650;53.580;10.094;2022-07-29T02:19:06;15.10;66.20
7218;DHT22;3650;53.580;10.094;2022-07-29T02:21:35;15.10;66.20
7218;DHT22;3650;53.580;10.094;2022-07-29T02:24:04;15.10;66.20
7218;DHT22;3650;53.580;10.094;2022-07-29T02:26:32;15.20;66.30
7218;DHT22;3650;53.580;10.094;2022-07-29T02:29:01;15.20;66.30
7218;DHT22;3650;53.580;10.094;2022-07-29T02:31:33;15.20;66.30
7218;DHT22;3650;53.580;10.094;2022-07-29T02:34:05;15.20;66.30
7218;DHT22;3650;53.580;10.094;2022-07-29T02:36:33;15.20;65.80
7218;DHT22;3650;53.580;10.094;2022-07-29T02:39:01;15.30;65.90
7218;DHT22;3650;53.580;10.094;2022-07-29T02:41:31;15.30;66.10
7218;DHT22;3650;53.580;10.094;2022-07-29T02:44:04;15.30;66.30
7218;DHT22;3650;53.580;10.094;2022-07-29T02:46:34;15.30;65.60
7218;DHT22;3650;53.580;10.094;2022-07-29T02:49:09;15.30;65.50
7218;DHT22;3650;53.580;10.094;2022-07-29T02:51:43;15.40;65.60
7218;DHT22;3650;53.580;10.094;2022-07-29T02:54:13;15.40;65.30
7218;DHT22;3650;53.580;10.094;2022-07-29T02:56:44;15.30;65.20
7218;DHT22;3650;53.580;10.094;2022-07-29T02:59:14;15.30;65.80
7218;DHT22;3650;53.580;10.094;2022-07-29T03:01:43;15.30;65.80
7218;DHT22;3650;53.580;10.094;2022-07-29T03:04:14;15.30;66.40
7218;DHT22;3650;53.580;10.094;2022-07-29T03:06:43;15.40;66.50
7218;DHT22;3650;53.580;10.094;2022-07-29T03:09:11;15.40;66.50
7218;DHT22;3650;53.580;10.094;2022-07-29T03:11:39;15.40;66.00
7218;DHT22;3650;53.580;10.094;2022-07-29T03:14:06;15.50;66.40
7218;DHT22;3650;53.580;10.094;2022-07-29T03:16:33;15.40;65.70
7218;DHT22;3650;53.580;10.094;2022-07-29T03:19:02;15.50;65.80
7218;DHT22;3650;53.580;10.094;2022-07-29T03:21:31;15.40;65.50
7218;DHT22;3650;53.580;10.094;2022-07-29T03:23:58;15.40;66.50
7218;DHT22;3650;53.580;10.094;2022-07-29T03:26:25;15.40;66.10
7218;DHT22;3650;53.580;10.094;2022-07-29T03:28:52;15.40;66.50
7218;DHT22;3650;53.580;10.094;2022-07-29T03:31:19;15.40;66.50
7218;DHT22;3650;53.580;10.094;2022-07-29T03:33:46;15.30;66.40
7218;DHT22;3650;53.580;10.094;2022-07-29T03:36:13;15.30;66.40
7218;DHT22;3650;53.580;10.094;2022-07-29T03:38:43;15.30;67.30
7218;DHT22;3650;53.580;10.094;2022-07-29T03:41:11;15.30;67.90
7218;DHT22;3650;53.580;10.094;2022-07-29T03:43:41;15.30;67.50
7218;DHT22;3650;53.580;10.094;2022-07-29T03:46:10;15.30;67.20
7218;DHT22;3650;53.580;10.094;2022-07-29T03:48:42;15.40;68.10
7218;DHT22;3650;53.580;10.094;2022-07-29T03:51:10;15.40;67.60
7218;DHT22;3650;53.580;10.094;2022-07-29T03:53:38;15.40;67.00
7218;DHT22;3650;53.580;10.094;2022-07-29T03:56:06;15.30;67.00
7218;DHT22;3650;53.580;10.094;2022-07-29T03:58:34;15.40;67.80
7218;DHT22;3650;53.580;10.094;2022-07-29T04:01:02;15.40;67.80
7218;DHT22;3650;53.580;10.094;2022-07-29T04:03:29;15.40;67.50
7218;DHT22;3650;53.580;10.094;2022-07-29T04:06:00;15.40;67.90
7218;DHT22;3650;53.580;10.094;2022-07-29T04:08:28;15.40;68.00
7218;DHT22;3650;53.580;10.094;2022-07-29T04:10:54;15.40;68.60
7218;DHT22;3650;53.580;10.094;2022-07-29T04:13:23;15.40;67.70
7218;DHT22;3650;53.580;10.094;2022-07-29T04:15:50;15.40;67.90
7218;DHT22;3650;53.580;10.094;2022-07-29T04:18:17;15.40;69.00
7218;DHT22;3650;53.580;10.094;2022-07-29T04:20:43;15.30;69.50
7218;DHT22;3650;53.580;10.094;2022-07-29T04:23:10;15.30;70.30
7218;DHT22;3650;53.580;10.094;2022-07-29T04:25:38;15.30;71.50
7218;DHT22;3650;53.580;10.094;2022-07-29T04:28:05;15.30;71.70
7218;DHT22;3650;53.580;10.094;2022-07-29T04:30:35;15.30;71.70
7218;DHT22;3650;53.580;10.094;2022-07-29T04:33:04;15.40;71.90
7218;DHT22;3650;53.580;10.094;2022-07-29T04:35:34;15.30;74.40
7218;DHT22;3650;53.580;10.094;2022-07-29T04:38:01;15.40;75.90
7218;DHT22;3650;53.580;10.094;2022-07-29T04:40:28;15.30;76.50
7218;DHT22;3650;53.580;10.094;2022-07-29T04:42:55;15.40;76.30
7218;DHT22;3650;53.580;10.094;2022-07-29T04:45:22;15.40;75.80
7218;DHT22;3650;53.580;10.094;2022-07-29T04:47:50;15.40;75.30
7218;DHT22;3650;53.580;10.094;2022-07-29T04:50:17;15.50;74.10
7218;DHT22;3650;53.580;10.094;2022-07-29T04:52:44;15.50;74.00
7218;DHT22;3650;53.580;10.094;2022-07-29T04:55:10;15.50;74.00
7218;DHT22;3650;53.580;10.094;2022-07-29T04:57:37;15.60;73.40
7218;DHT22;3650;53.580;10.094;2022-07-29T05:00:06;15.60;73.20
7218;DHT22;3650;53.580;10.094;2022-07-29T05:02:33;15.60;72.80
7218;DHT22;3650;53.580;10.094;2022-07-29T05:05:01;15.80;72.20
7218;DHT22;3650;53.580;10.094;2022-07-29T05:07:28;15.80;71.30
7218;DHT22;3650;53.580;10.094;2022-07-29T05:09:54;15.80;71.20
7218;DHT22;3650;53.580;10.094;2022-07-29T05:12:22;15.80;71.10
7218;DHT22;3650;53.580;10.094;2022-07-29T05:14:49;15.80;70.70
7218;DHT22;3650;53.580;10.094;2022-07-29T05:17:16;15.80;71.10
7218;DHT22;3650;53.580;10.094;2022-07-29T05:19:43;15.80;70.50
7218;DHT22;3650;53.580;10.094;2022-07-29T05:22:11;15.90;70.40
7218;DHT22;3650;53.580;10.094;2022-07-29T05:24:38;15.90;71.60
7218;DHT22;3650;53.580;10.094;2022-07-29T05:27:04;15.90;71.20
7218;DHT22;3650;53.580;10.094;2022-07-29T05:29:31;16.00;70.50
7218;DHT22;3650;53.580;10.094;2022-07-29T05:31:58;16.00;70.40
7218;DHT22;3650;53.580;10.094;2022-07-29T05:34:25;16.10;71.00
7218;DHT22;3650;53.580;10.094;2022-07-29T05:36:52;16.10;71.30
7218;DHT22;3650;53.580;10.094;2022-07-29T05:39:20;16.20;71.30
7218;DHT22;3650;53.580;10.094;2022-07-29T05:41:47;16.20;72.00
7218;DHT22;3650;53.580;10.094;2022-07-29T05:44:14;16.30;73.90
7218;DHT22;3650;53.580;10.094;2022-07-29T05:46:41;16.30;74.50
7218;DHT22;3650;53.580;10.094;2022-07-29T05:49:08;16.40;75.50
7218;DHT22;3650;53.580;10.094;2022-07-29T05:51:35;16.40;75.50
7218;DHT22;3650;53.580;10.094;2022-07-29T05:54:02;16.50;75.50
7218;DHT22;3650;53.580;10.094;2022-07-29T05:56:31;16.50;75.20
7218;DHT22;3650;53.580;10.094;2022-07-29T05:58:57;16.60;74.20
7218;DHT22;3650;53.580;10.094;2022-07-29T06:01:24;16.60;73.80
7218;DHT22;3650;53.580;10.094;2022-07-29T06:03:51;16.70;73.60
7218;DHT22;3650;53.580;10.094;2022-07-29T06:06:18;16.70;73.00
7218;DHT22;3650;53.580;10.094;2022-07-29T06:08:45;16.80;72.60
7218;DHT22;3650;53.580;10.094;2022-07-29T06:11:12;16.90;72.40
7218;DHT22;3650;53.580;10.094;2022-07-29T06:13:40;16.90;71.40
7218;DHT22;3650;53.580;10.094;2022-07-29T06:16:07;17.00;71.00
7218;DHT22;3650;53.580;10.094;2022-07-29T06:18:33;17.00;70.90
7218;DHT22;3650;53.580;10.094;2022-07-29T06:21:00;17.10;70.30
7218;DHT22;3650;53.580;10.094;2022-07-29T06:23:27;17.20;69.50
7218;DHT22;3650;53.580;10.094;2022-07-29T06:25:54;17.20;68.80
7218;DHT22;3650;53.580;10.094;2022-07-29T06:28:21;17.30;68.20
7218;DHT22;3650;53.580;10.094;2022-07-29T06:30:49;17.30;68.20
7218;DHT22;3650;53.580;10.094;2022-07-29T06:33:17;17.40;68.40
7218;DHT22;3650;53.580;10.094;2022-07-29T06:35:44;17.50;68.40
7218;DHT22;3650;53.580;10.094;2022-07-29T06:38:13;17.50;67.50
7218;DHT22;3650;53.580;10.094;2022-07-29T06:40:41;17.60;68.00
7218;DHT22;3650;53.580;10.094;2022-07-29T06:43:26;17.60;68.00
7218;DHT22;3650;53.580;10.094;2022-07-29T06:45:55;17.70;67.20
7218;DHT22;3650;53.580;10.094;2022-07-29T06:48:22;17.80;65.40
7218;DHT22;3650;53.580;10.094;2022-07-29T06:50:49;17.80;65.20
7218;DHT22;3650;53.580;10.094;2022-07-29T06:53:16;17.90;65.50
7218;DHT22;3650;53.580;10.094;2022-07-29T06:55:43;18.00;65.10
7218;DHT22;3650;53.580;10.094;2022-07-29T06:58:09;18.00;64.90
7218;DHT22;3650;53.580;10.094;2022-07-29T07:00:38;18.10;63.10
7218;DHT22;3650;53.580;10.094;2022-07-29T07:03:07;18.10;63.20
7218;DHT22;3650;53.580;10.094;2022-07-29T07:05:34;18.20;61.70
7218;DHT22;3650;53.580;10.094;2022-07-29T07:08:00;18.20;63.70
7218;DHT22;3650;53.580;10.094;2022-07-29T07:10:27;18.20;63.60
7218;DHT22;3650;53.580;10.094;2022-07-29T07:12:54;18.20;64.60
7218;DHT22;3650;53.580;10.094;2022-07-29T07:15:21;18.30;64.60
7218;DHT22;3650;53.580;10.094;2022-07-29T07:17:48;18.30;64.00
7218;DHT22;3650;53.580;10.094;2022-07-29T07:20:17;18.30;63.90
7218;DHT22;3650;53.580;10.094;2022-07-29T07:22:44;18.40;63.30
7218;DHT22;3650;53.580;10.094;2022-07-29T07:25:11;18.30;63.00
7218;DHT22;3650;53.580;10.094;2022-07-29T07:27:38;18.40;62.70
7218;DHT22;3650;53.580;10.094;2022-07-29T07:30:07;18.40;62.40
7218;DHT22;3650;53.580;10.094;2022-07-29T07:32:34;18.40;62.30
7218;DHT22;3650;53.580;10.094;2022-07-29T07:35:02;18.50;62.10
7218;DHT22;3650;53.580;10.094;2022-07-29T07:37:30;18.50;61.90
7218;DHT22;3650;53.580;10.094;2022-07-29T07:39:57;18.50;64.00
7218;DHT22;3650;53.580;10.094;2022-07-29T07:42:24;18.60;61.40
7218;DHT22;3650;53.580;10.094;2022-07-29T07:44:51;18.60;61.10
7218;DHT22;3650;53.580;10.094;2022-07-29T07:47:18;18.60;60.70
7218;DHT22;3650;53.580;10.094;2022-07-29T07:49:46;18.60;60.00
7218;DHT22;3650;53.580;10.094;2022-07-29T07:52:13;18.60;59.80
7218;DHT22;3650;53.580;10.094;2022-07-29T07:54:41;18.60;59.90
7218;DHT22;3650;53.580;10.094;2022-07-29T07:57:08;18.60;59.80
7218;DHT22;3650;53.580;10.094;2022-07-29T07:59:35;18.60;60.10
7218;DHT22;3650;53.580;10.094;2022-07-29T08:02:02;18.50;60.40
7218;DHT22;3650;53.580;10.094;2022-07-29T08:04:29;18.60;61.20
7218;DHT22;3650;53.580;10.094;2022-07-29T08:06:57;18.60;61.10
7218;DHT22;3650;53.580;10.094;2022-07-29T08:09:25;18.60;62.30
7218;DHT22;3650;53.580;10.094;2022-07-29T08:11:54;18.70;60.90
7218;DHT22;3650;53.580;10.094;2022-07-29T08:14:21;18.70;61.60
7218;DHT22;3650;53.580;10.094;2022-07-29T08:16:48;18.70;62.70
7218;DHT22;3650;53.580;10.094;2022-07-29T08:19:16;18.80;62.10
7218;DHT22;3650;53.580;10.094;2022-07-29T08:21:43;18.80;60.20
7218;DHT22;3650;53.580;10.094;2022-07-29T08:24:09;18.80;60.20
7218;DHT22;3650;53.580;10.094;2022-07-29T08:26:55;18.80;59.70
7218;DHT22;3650;53.580;10.094;2022-07-29T08:29:22;18.90;60.40
7218;DHT22;3650;53.580;10.094;2022-07-29T08:31:49;18.90;60.50
7218;DHT22;3650;53.580;10.094;2022-07-29T08:34:16;19.00;60.30
7218;DHT22;3650;53.580;10.094;2022-07-29T08:36:42;19.00;60.30
7218;DHT22;3650;53.580;10.094;2022-07-29T08:39:09;19.10;58.80
7218;DHT22;3650;53.580;10.094;2022-07-29T08:41:36;19.20;59.30
7218;DHT22;3650;53.580;10.094;2022-07-29T08:44:04;19.20;59.80
7218;DHT22;3650;53.580;10.094;2022-07-29T08:46:31;19.30;57.90
7218;DHT22;3650;53.580;10.094;2022-07-29T08:48:58;19.30;60.20
7218;DHT22;3650;53.580;10.094;2022-07-29T08:51:26;19.30;57.80
7218;DHT22;3650;53.580;10.094;2022-07-29T08:53:55;19.40;59.10
7218;DHT22;3650;53.580;10.094;2022-07-29T08:56:22;19.40;58.10
7218;DHT22;3650;53.580;10.094;2022-07-29T08:58:49;19.40;57.30
7218;DHT22;3650;53.580;10.094;2022-07-29T09:01:21;19.50;56.40
7218;DHT22;3650;53.580;10.094;2022-07-29T09:03:49;19.60;55.70
7218;DHT22;3650;53.580;10.094;2022-07-29T09:06:18;19.60;56.10
7218;DHT22;3650;53.580;10.094;2022-07-29T09:08:45;19.70;55.00
7218;DHT22;3650;53.580;10.094;2022-07-29T09:11:11;19.70;56.50
7218;DHT22;3650;53.580;10.094;2022-07-29T09:13:39;19.70;54.80
7218;DHT22;3650;53.580;10.094;2022-07-29T09:16:06;19.80;54.50
7218;DHT22;3650;53.580;10.094;2022-07-29T09:18:36;19.90;55.00
7218;DHT22;3650;53.580;10.094;2022-07-29T09:21:04;19.90;54.30
7218;DHT22;3650;53.580;10.094;2022-07-29T09:24:03;20.00;54.60
7218;DHT22;3650;53.580;10.094;2022-07-29T09:26:31;20.10;51.90
7218;DHT22;3650;53.580;10.094;2022-07-29T09:28:59;20.10;51.90
7218;DHT22;3650;53.580;10.094;2022-07-29T09:31:32;20.20;51.70
7218;DHT22;3650;53.580;10.094;2022-07-29T09:34:01;20.20;50.80
7218;DHT22;3650;53.580;10.094;2022-07-29T09:36:28;20.30;51.30
7218;DHT22;3650;53.580;10.094;2022-07-29T09:38:58;20.40;52.90
7218;DHT22;3650;53.580;10.094;2022-07-29T09:41:26;20.40;51.30
7218;DHT22;3650;53.580;10.094;2022-07-29T09:43:55;20.50;48.60
7218;DHT22;3650;53.580;10.094;2022-07-29T09:46:22;20.50;49.30
7218;DHT22;3650;53.580;10.094;2022-07-29T09:49:11;20.60;46.10
7218;DHT22;3650;53.580;10.094;2022-07-29T09:51:38;20.60;46.10
7218;DHT22;3650;53.580;10.094;2022-07-29T09:54:21;20.60;47.00
7218;DHT22;3650;53.580;10.094;2022-07-29T09:56:48;20.70;46.20
7218;DHT22;3650;53.580;10.094;2022-07-29T09:59:15;20.70;47.80
7218;DHT22;3650;53.580;10.094;2022-07-29T10:01:42;20.70;48.10
7218;DHT22;3650;53.580;10.094;2022-07-29T10:04:10;20.70;47.70
7218;DHT22;3650;53.580;10.094;2022-07-29T10:06:55;20.70;44.30
7218;DHT22;3650;53.580;10.094;2022-07-29T10:09:23;20.80;43.60
7218;DHT22;3650;53.580;10.094;2022-07-29T10:12:03;20.80;46.00
7218;DHT22;3650;53.580;10.094;2022-07-29T10:14:31;20.80;46.90
7218;DHT22;3650;53.580;10.094;2022-07-29T10:16:59;20.90;50.20
7218;DHT22;3650;53.580;10.094;2022-07-29T10:19:28;20.90;46.40
7218;DHT22;3650;53.580;10.094;2022-07-29T10:21:57;20.90;43.20
7218;DHT22;3650;53.580;10.094;2022-07-29T10:24:25;20.90;44.10
7218;DHT22;3650;53.580;10.094;2022-07-29T10:26:54;20.90;45.80
7218;DHT22;3650;53.580;10.094;2022-07-29T10:29:21;20.90;44.10
7218;DHT22;3650;53.580;10.094;2022-07-29T10:31:55;20.90;43.50
7218;DHT22;3650;53.580;10.094;2022-07-29T10:34:34;21.00;43.50
7218;DHT22;3650;53.580;10.094;2022-07-29T10:37:07;21.00;44.60
7218;DHT22;3650;53.580;10.094;2022-07-29T10:39:44;21.00;44.40
7218;DHT22;3650;53.580;10.094;2022-07-29T10:42:18;21.10;41.90
7218;DHT22;3650;53.580;10.094;2022-07-29T10:44:46;21.10;44.10
7218;DHT22;3650;53.580;10.094;2022-07-29T10:47:21;21.10;43.00
7218;DHT22;3650;53.580;10.094;2022-07-29T10:50:00;21.20;43.50
7218;DHT22;3650;53.580;10.094;2022-07-29T10:52:55;21.20;41.30
7218;DHT22;3650;53.580;10.094;2022-07-29T10:55:34;21.20;41.50
7218;DHT22;3650;53.580;10.094;2022-07-29T10:58:14;21.20;41.00
7218;DHT22;3650;53.580;10.094;2022-07-29T11:00:41;21.20;41.80
7218;DHT22;3650;53.580;10.094;2022-07-29T11:03:09;21.30;40.40
7218;DHT22;3650;53.580;10.094;2022-07-29T11:05:54;21.20;40.20
7218;DHT22;3650;53.580;10.094;2022-07-29T11:08:23;21.30;41.50
7218;DHT22;3650;53.580;10.094;2022-07-29T11:10:53;21.30;40.70
7218;DHT22;3650;53.580;10.094;2022-07-29T11:13:47;21.30;40.50
7218;DHT22;3650;53.580;10.094;2022-07-29T11:16:16;21.30;40.60
7218;DHT22;3650;53.580;10.094;2022-07-29T11:19:21;21.40;43.20
7218;DHT22;3650;53.580;10.094;2022-07-29T11:21:49;21.50;41.40
7218;DHT22;3650;53.580;10.094;2022-07-29T11:24:20;21.50;41.40
7218;DHT22;3650;53.580;10.094;2022-07-29T11:27:13;21.60;39.30
7218;DHT22;3650;53.580;10.094;2022-07-29T11:29:49;21.70;38.80
7218;DHT22;3650;53.580;10.094;2022-07-29T11:32:17;21.70;39.30
7218;DHT22;3650;53.580;10.094;2022-07-29T11:34:46;21.70;38.70
7218;DHT22;3650;53.580;10.094;2022-07-29T11:37:24;21.90;39.10
7218;DHT22;3650;53.580;10.094;2022-07-29T11:40:15;21.90;38.30
7218;DHT22;3650;53.580;10.094;2022-07-29T11:42:47;22.00;39.40
7218;DHT22;3650;53.580;10.094;2022-07-29T11:45:22;22.00;36.50
7218;DHT22;3650;53.580;10.094;2022-07-29T11:47:55;22.10;36.80
7218;DHT22;3650;53.580;10.094;2022-07-29T11:50:41;22.10;37.00
7218;DHT22;3650;53.580;10.094;2022-07-29T11:53:12;22.10;37.00
7218;DHT22;3650;53.580;10.094;2022-07-29T11:55:40;22.10;36.80
7218;DHT22;3650;53.580;10.094;2022-07-29T11:58:07;22.10;36.30
7218;DHT22;3650;53.580;10.094;2022-07-29T12:00:36;22.10;36.50
7218;DHT22;3650;53.580;10.094;2022-07-29T12:03:05;22.20;37.30
7218;DHT22;3650;53.580;10.094;2022-07-29T12:05:37;22.20;36.20
7218;DHT22;3650;53.580;10.094;2022-07-29T12:08:11;22.30;37.90
7218;DHT22;3650;53.580;10.094;2022-07-29T12:10:38;22.40;41.00
7218;DHT22;3650;53.580;10.094;2022-07-29T12:13:06;22.50;37.40
7218;DHT22;3650;53.580;10.094;2022-07-29T12:15:34;22.60;36.90
7218;DHT22;3650;53.580;10.094;2022-07-29T12:18:16;22.80;39.90
7218;DHT22;3650;53.580;10.094;2022-07-29T12:20:44;22.90;37.20
7218;DHT22;3650;53.580;10.094;2022-07-29T12:23:13;23.00;37.20
7218;DHT22;3650;53.580;10.094;2022-07-29T12:25:43;23.00;35.80
7218;DHT22;3650;53.580;10.094;2022-07-29T12:28:12;23.10;35.60
7218;DHT22;3650;53.580;10.094;2022-07-29T12:30:43;23.20;35.90
7218;DHT22;3650;53.580;10.094;2022-07-29T12:33:18;23.30;32.20
7218;DHT22;3650;53.580;10.094;2022-07-29T12:35:48;23.40;34.60
7218;DHT22;3650;53.580;10.094;2022-07-29T12:38:17;23.50;33.40
7218;DHT22;3650;53.580;10.094;2022-07-29T12:40:45;23.50;35.20
7218;DHT22;3650;53.580;10.094;2022-07-29T12:43:16;23.60;33.60
7218;DHT22;3650;53.580;10.094;2022-07-29T12:45:44;23.60;32.90
7218;DHT22;3650;53.580;10.094;2022-07-29T12:48:13;23.70;33.10
7218;DHT22;3650;53.580;10.094;2022-07-29T12:50:53;23.70;30.60
7218;DHT22;3650;53.580;10.094;2022-07-29T12:53:22;23.70;30.70
7218;DHT22;3650;53.580;10.094;2022-07-29T12:55:51;23.70;32.90
7218;DHT22;3650;53.580;10.094;2022-07-29T12:58:33;23.60;30.60
7218;DHT22;3650;53.580;10.094;2022-07-29T13:01:08;23.60;31.60
7218;DHT22;3650;53.580;10.094;2022-07-29T13:03:57;23.60;31.80
7218;DHT22;3650;53.580;10.094;2022-07-29T13:06:30;23.70;30.90
7218;DHT22;3650;53.580;10.094;2022-07-29T13:09:04;23.80;31.50
7218;DHT22;3650;53.580;10.094;2022-07-29T13:11:33;23.90;31.70
7218;DHT22;3650;53.580;10.094;2022-07-29T13:14:00;23.90;32.10
7218;DHT22;3650;53.580;10.094;2022-07-29T13:16:27;24.10;28.40
7218;DHT22;3650;53.580;10.094;2022-07-29T13:19:05;24.10;27.90
7218;DHT22;3650;53.580;10.094;2022-07-29T13:21:32;24.10;26.90
7218;DHT22;3650;53.580;10.094;2022-07-29T13:23:59;24.20;26.40
7218;DHT22;3650;53.580;10.094;2022-07-29T13:26:27;24.30;29.70
7218;DHT22;3650;53.580;10.094;2022-07-29T13:28:54;24.30;32.20
7218;DHT22;3650;53.580;10.094;2022-07-29T13:31:21;24.40;34.10
7218;DHT22;3650;53.580;10.094;2022-07-29T13:33:48;24.50;34.60
7218;DHT22;3650;53.580;10.094;2022-07-29T13:36:15;24.50;35.50
7218;DHT22;3650;53.580;10.094;2022-07-29T13:38:42;24.50;36.20
7218;DHT22;3650;53.580;10.094;2022-07-29T13:41:09;24.50;35.50
7218;DHT22;3650;53.580;10.094;2022-07-29T13:43:37;24.60;36.40
7218;DHT22;3650;53.580;10.094;2022-07-29T13:46:04;24.60;35.50
7218;DHT22;3650;53.580;10.094;2022-07-29T13:48:31;24.60;35.30
7218;DHT22;3650;53.580;10.094;2022-07-29T13:50:57;24.70;34.90
7218;DHT22;3650;53.580;10.094;2022-07-29T13:53:24;24.70;34.70
7218;DHT22;3650;53.580;10.094;2022-07-29T13:55:51;24.60;34.70
7218;DHT22;3650;53.580;10.094;2022-07-29T13:58:18;24.60;35.10
7218;DHT22;3650;53.580;10.094;2022-07-29T14:00:46;24.50;36.60
7218;DHT22;3650;53.580;10.094;2022-07-29T14:03:13;24.40;35.60
7218;DHT22;3650;53.580;10.094;2022-07-29T14:05:40;24.30;36.20
7218;DHT22;3650;53.580;10.094;2022-07-29T14:08:07;24.10;36.60
7218;DHT22;3650;53.580;10.094;2022-07-29T14:10:34;24.10;36.60
7218;DHT22;3650;53.580;10.094;2022-07-29T14:13:00;24.00;36.50
7218;DHT22;3650;53.580;10.094;2022-07-29T14:15:27;23.90;36.50
7218;DHT22;3650;53.580;10.094;2022-07-29T14:17:56;23.80;36.30
7218;DHT22;3650;53.580;10.094;2022-07-29T14:20:23;23.70;36.80
7218;DHT22;3650;53.580;10.094;2022-07-29T14:22:49;23.70;36.20
7218;DHT22;3650;53.580;10.094;2022-07-29T14:25:16;23.70;36.80
7218;DHT22;3650;53.580;10.094;2022-07-29T14:27:43;23.70;36.90
7218;DHT22;3650;53.580;10.094;2022-07-29T14:30:10;23.80;37.00
7218;DHT22;3650;53.580;10.094;2022-07-29T14:32:37;23.70;36.30
7218;DHT22;3650;53.580;10.094;2022-07-29T14:35:07;23.60;36.20
7218;DHT22;3650;53.580;10.094;2022-07-29T14:37:34;23.60;36.20
7218;DHT22;3650;53.580;10.094;2022-07-29T14:40:01;23.60;37.10
7218;DHT22;3650;53.580;10.094;2022-07-29T14:42:29;23.50;37.50
7218;DHT22;3650;53.580;10.094;2022-07-29T14:44:57;23.40;37.80
7218;DHT22;3650;53.580;10.094;2022-07-29T14:47:23;23.40;38.30
7218;DHT22;3650;53.580;10.094;2022-07-29T14:49:50;23.30;38.30
7218;DHT22;3650;53.580;10.094;2022-07-29T14:52:18;23.30;38.60
7218;DHT22;3650;53.580;10.094;2022-07-29T14:54:45;23.30;38.80
7218;DHT22;3650;53.580;10.094;2022-07-29T14:57:12;23.30;39.40
7218;DHT22;3650;53.580;10.094;2022-07-29T14:59:39;23.30;39.10
7218;DHT22;3650;53.580;10.094;2022-07-29T15:02:06;23.30;39.30
7218;DHT22;3650;53.580;10.094;2022-07-29T15:04:32;23.30;39.70
7218;DHT22;3650;53.580;10.094;2022-07-29T15:07:00;23.40;39.30
7218;DHT22;3650;53.580;10.094;2022-07-29T15:09:28;23.50;39.20
7218;DHT22;3650;53.580;10.094;2022-07-29T15:11:55;23.60;38.70
7218;DHT22;3650;53.580;10.094;2022-07-29T15:14:22;23.80;37.80
7218;DHT22;3650;53.580;10.094;2022-07-29T15:16:49;24.10;37.30
7218;DHT22;3650;53.580;10.094;2022-07-29T15:19:16;24.20;36.70
7218;DHT22;3650;53.580;10.094;2022-07-29T15:21:42;24.20;36.60
7218;DHT22;3650;53.580;10.094;2022-07-29T15:24:09;24.20;36.60
7218;DHT22;3650;53.580;10.094;2022-07-29T15:26:38;24.20;37.10
7218;DHT22;3650;53.580;10.094;2022-07-29T15:29:04;24.20;38.30
7218;DHT22;3650;53.580;10.094;2022-07-29T15:31:31;24.10;38.00
7218;DHT22;3650;53.580;10.094;2022-07-29T15:33:58;24.10;39.40
7218;DHT22;3650;53.580;10.094;2022-07-29T15:36:25;24.00;38.70
7218;DHT22;3650;53.580;10.094;2022-07-29T15:38:52;23.90;38.50
7218;DHT22;3650;53.580;10.094;2022-07-29T15:41:20;23.80;39.00
7218;DHT22;3650;53.580;10.094;2022-07-29T15:43:49;23.80;38.50
7218;DHT22;3650;53.580;10.094;2022-07-29T15:46:17;23.70;37.90
7218;DHT22;3650;53.580;10.094;2022-07-29T15:49:02;23.60;38.40
7218;DHT22;3650;53.580;10.094;2022-07-29T15:51:29;23.60;39.40
7218;DHT22;3650;53.580;10.094;2022-07-29T15:53:56;23.60;39.60
7218;DHT22;3650;53.580;10.094;2022-07-29T15:56:23;23.50;39.80
7218;DHT22;3650;53.580;10.094;2022-07-29T15:58:52;23.60;40.00